Time;durP1;ratioP1;P1;durP2;ratioP2;P2;SDS_P1;SDS_P2;PMS_P1;PMS_P2;Temp;Humidity;BMP_temperature;BMP_pressure;BME280_temperature;BME280_humidity;BME280_pressure;Samples;Min_cycle;Max_cycle;Signal;HPM_P1;HPM_P2
2023/01/28 08:44:16;;;;;;;39.33;3.78;;;14.10;61.40;;;;;;4873023;29;20404;-80
2023/01/28 08:47:10;;;;;;;23.55;2.70;;;14.20;61.60;;;;;;4880041;29;20045;-79
2023/01/28 08:50:15;;;;;;;20.55;3.08;;;14.20;61.70;;;;;;4838156;29;20049;-83
2023/01/28 08:52:45;;;;;;;17.35;2.50;;;14.40;61.90;;;;;;4879123;29;20037;-80
2023/01/28 08:55:20;;;;;;;24.02;3.83;;;14.40;62.00;;;;;;4879860;29;20528;-77
2023/01/28 08:58:37;;;;;;;31.77;3.30;;;14.50;61.80;;;;;;4866726;29;20422;-80
2023/01/28 09:01:33;;;;;;;28.45;2.88;;;14.60;62.00;;;;;;4851108;29;20139;-80
2023/01/28 09:04:04;;;;;;;21.60;3.35;;;14.70;62.10;;;;;;4796408;29;20550;-79
2023/01/28 09:06:30;;;;;;;28.08;3.40;;;14.80;62.00;;;;;;4811430;29;20130;-81
2023/01/28 09:08:57;;;;;;;24.60;2.80;;;14.90;62.00;;;;;;4874346;29;20132;-81
2023/01/28 09:11:31;;;;;;;28.55;3.33;;;15.00;61.60;;;;;;4852333;29;20059;-80
2023/01/28 09:13:57;;;;;;;47.47;4.15;;;15.00;61.30;;;;;;4866812;29;20135;-78
2023/01/28 09:25:17;;;;;;;;;;;;;;;;;;;;;
2023/01/28 09:36:31;;;;;;;17.50;2.30;;;15.00;57.70;;;;;;4825237;29;20046;-80
2023/01/28 09:39:34;;;;;;;8.63;2.00;;;15.00;57.70;;;;;;4863144;29;20045;-80
2023/01/28 09:42:44;;;;;;;11.38;1.58;;;14.90;57.80;;;;;;4856321;29;20468;-79
2023/01/28 09:48:36;;;;;;;11.05;2.40;;;14.70;57.90;;;;;;4883047;29;20064;-80
2023/01/28 09:55:43;;;;;;;9.98;2.38;;;14.60;57.40;;;;;;4833340;29;20551;-81
2023/01/28 10:02:21;;;;;;;;;;;;;;;;;;;;;
2023/01/28 10:45:14;;;;;;;5.32;0.93;;;13.90;59.10;;;;;;5726443;23;20051;-76
2023/01/28 10:48:01;;;;;;;14.60;2.13;;;13.90;59.10;;;;;;4920434;29;20063;-80
2023/01/28 10:50:29;;;;;;;31.70;3.22;;;13.90;59.20;;;;;;4938829;29;20131;-80
2023/01/28 10:52:59;;;;;;;15.88;2.55;;;13.90;59.40;;;;;;4938723;29;20040;-79
2023/01/28 10:55:47;;;;;;;20.73;2.97;;;13.80;59.00;;;;;;4938590;29;20141;-80
2023/01/28 10:58:22;;;;;;;15.02;2.78;;;13.90;58.40;;;;;;4938267;29;20044;-79
2023/01/28 11:00:58;;;;;;;30.88;3.78;;;14.00;58.70;;;;;;4938781;29;20043;-69
2023/01/28 11:03:28;;;;;;;34.85;3.80;;;14.10;58.60;;;;;;4938548;29;20055;-79
2023/01/28 11:05:55;;;;;;;30.98;4.72;;;14.20;58.80;;;;;;4929820;29;20051;-79
2023/01/28 11:08:23;;;;;;;31.85;3.97;;;14.30;58.70;;;;;;4938178;29;20415;-76
2023/01/28 11:11:14;;;;;;;36.78;4.63;;;14.40;58.70;;;;;;4938271;29;20055;-81
2023/01/28 11:21:22;;;;;;;45.95;5.75;;;14.80;58.90;;;;;;4917903;29;20083;-76
2023/01/28 11:23:56;;;;;;;25.08;3.63;;;14.90;58.90;;;;;;4922891;29;20380;-78
2023/01/28 11:26:24;;;;;;;33.97;4.72;;;14.90;58.90;;;;;;4922800;29;20107;-79
2023/01/28 11:28:51;;;;;;;26.17;3.08;;;15.00;58.80;;;;;;4930446;29;20099;-77
2023/01/28 11:31:19;;;;;;;35.08;3.53;;;15.10;58.80;;;;;;4927790;29;20047;-76
2023/01/28 11:33:51;;;;;;;22.83;2.97;;;15.10;58.80;;;;;;4933626;29;20078;-77
2023/01/28 11:36:19;;;;;;;30.67;4.03;;;15.20;59.20;;;;;;4922206;29;20032;-79
2023/01/28 11:38:51;;;;;;;34.42;3.50;;;15.20;59.30;;;;;;4930463;29;20044;-75
2023/01/28 11:41:24;;;;;;;29.60;3.10;;;15.20;59.50;;;;;;4929993;29;20043;-76
2023/01/28 11:43:50;;;;;;;21.20;3.45;;;15.30;59.70;;;;;;4922398;29;20044;-78
2023/01/28 11:46:19;;;;;;;14.45;2.67;;;15.30;58.50;;;;;;4933813;29;20501;-78
2023/01/28 11:49:20;;;;;;;13.52;2.85;;;15.40;56.70;;;;;;4923736;29;20067;-75
2023/01/28 11:52:10;;;;;;;;;;;;;;;;;;;;;
2023/01/28 12:21:15;;;;;;;3.45;0.88;;;15.80;55.80;;;;;;4812802;29;20093;-81
2023/01/28 14:27:33;;;;;;;8.90;1.03;;;13.90;58.90;;;;;;4920433;29;20071;-83
2023/01/28 14:30:17;;;;;;;6.40;0.70;;;13.90;59.50;;;;;;4911758;29;20047;-83
2023/01/28 14:33:11;;;;;;;12.40;2.00;;;13.90;59.60;;;;;;4906617;29;20040;-79
2023/01/28 14:35:43;;;;;;;12.10;1.80;;;14.00;59.90;;;;;;4887349;29;20463;-75
2023/01/28 14:38:23;;;;;;;19.63;1.88;;;14.10;60.00;;;;;;4903684;29;20060;-81
2023/01/28 14:41:11;;;;;;;11.63;2.05;;;14.20;60.40;;;;;;4879517;29;20048;-83
2023/01/28 14:47:40;;;;;;;15.48;2.33;;;14.40;60.60;;;;;;4919882;29;20075;-82
2023/01/28 14:50:32;;;;;;;16.60;1.00;;;14.50;61.00;;;;;;4887932;29;20071;-81
2023/01/28 14:53:30;;;;;;;9.68;1.33;;;14.60;61.20;;;;;;4887278;29;20448;-76
2023/01/28 14:56:12;;;;;;;12.45;1.30;;;14.60;62.70;;;;;;4920166;29;20110;-80
2023/01/28 14:59:06;;;;;;;10.80;1.50;;;14.70;63.30;;;;;;4919786;29;20044;-80
2023/01/28 15:01:32;;;;;;;14.73;1.33;;;14.70;63.50;;;;;;4919576;29;20036;-79
2023/01/28 15:03:58;;;;;;;17.60;2.08;;;14.80;63.80;;;;;;4919461;29;20051;-78
2023/01/28 15:10:51;;;;;;;12.23;1.80;;;14.90;64.10;;;;;;4918160;29;20115;-81
2023/01/28 15:30:03;;;;;;;15.88;2.30;;;15.50;65.70;;;;;;4806369;29;20054;-80
2023/01/28 15:33:11;;;;;;;23.02;2.35;;;15.60;65.90;;;;;;4791235;29;20051;-80
2023/01/28 15:39:49;;;;;;;21.23;2.40;;;15.60;65.30;;;;;;4802133;29;20197;-80
2023/01/28 15:54:14;;;;;;;17.75;2.17;;;15.50;65.10;;;;;;4810271;29;20145;-80
2023/01/28 15:56:39;;;;;;;21.10;2.35;;;15.50;64.80;;;;;;4816198;29;20068;-80
2023/01/28 15:59:16;;;;;;;13.18;1.80;;;15.50;64.70;;;;;;4818639;29;20474;-83
2023/01/28 16:01:42;;;;;;;21.45;2.20;;;15.40;64.70;;;;;;4865225;29;20055;-80
2023/01/28 16:04:24;;;;;;;12.55;1.45;;;15.50;64.80;;;;;;4919017;29;20123;-79
2023/01/28 16:06:51;;;;;;;10.98;2.10;;;15.40;64.80;;;;;;4890186;29;20363;-80
2023/01/28 16:09:30;;;;;;;14.02;1.27;;;15.50;64.80;;;;;;4890162;29;20058;-80
2023/01/28 16:12:04;;;;;;;13.30;1.90;;;15.60;64.90;;;;;;4922674;29;20036;-82
2023/01/28 16:14:39;;;;;;;15.85;1.95;;;15.60;64.90;;;;;;4890103;29;20040;-82
2023/01/28 16:17:05;;;;;;;14.07;1.90;;;15.50;64.80;;;;;;4898910;29;20071;-82
2023/01/28 16:19:34;;;;;;;14.07;1.98;;;15.50;64.80;;;;;;4903634;29;20047;-83
2023/01/28 16:22:00;;;;;;;7.78;1.15;;;15.60;64.90;;;;;;4922753;29;20412;-80
2023/01/28 16:24:34;;;;;;;8.32;1.58;;;15.50;64.80;;;;;;4910162;29;20340;-81
2023/01/28 16:27:01;;;;;;;13.65;1.67;;;15.50;64.80;;;;;;4904668;29;20060;-79
2023/01/28 16:29:29;;;;;;;16.38;1.42;;;15.50;64.90;;;;;;4920185;29;20060;-82
2023/01/28 16:31:56;;;;;;;12.70;1.83;;;15.40;65.00;;;;;;4904826;29;20083;-82
2023/01/28 16:34:28;;;;;;;20.50;1.88;;;15.40;64.90;;;;;;4921793;29;20115;-80
2023/01/28 18:40:18;;;;;;;10.98;1.38;;;13.80;63.70;;;;;;4854930;29;20077;-76
2023/01/28 18:42:43;;;;;;;12.40;2.13;;;13.80;63.60;;;;;;4863440;29;20053;-77
2023/01/28 18:45:09;;;;;;;13.02;1.33;;;13.90;63.80;;;;;;4861544;29;20109;-78
2023/01/28 18:47:35;;;;;;;6.68;0.95;;;13.90;64.90;;;;;;4863950;29;20127;-78
2023/01/28 18:50:04;;;;;;;7.07;1.63;;;13.90;65.80;;;;;;4877706;29;20558;-80
2023/01/28 18:52:45;;;;;;;7.45;1.63;;;13.90;67.10;;;;;;4863035;29;20053;-80
2023/01/28 18:55:13;;;;;;;8.52;1.75;;;14.00;67.90;;;;;;4863103;29;20125;-77
2023/01/28 18:57:42;;;;;;;8.30;1.75;;;14.00;67.90;;;;;;4863233;29;20101;-77
2023/01/28 19:00:09;;;;;;;4.68;1.40;;;14.00;68.20;;;;;;4863520;29;20056;-78
2023/01/28 19:02:37;;;;;;;5.28;1.05;;;14.00;67.90;;;;;;4869768;29;20041;-80
2023/01/28 19:05:06;;;;;;;3.35;1.25;;;14.10;68.00;;;;;;4849909;29;20092;-79
2023/01/28 19:07:34;;;;;;;6.10;1.20;;;14.00;67.70;;;;;;4881425;29;20059;-76
2023/01/28 19:10:06;;;;;;;5.90;1.15;;;14.00;67.50;;;;;;4850526;29;20128;-75
2023/01/28 19:12:32;;;;;;;7.55;1.50;;;14.10;66.40;;;;;;4828912;29;20056;-78
2023/01/28 19:14:58;;;;;;;11.35;1.98;;;14.10;66.20;;;;;;4856142;29;20045;-78
2023/01/28 19:17:23;;;;;;;3.72;1.13;;;14.10;65.80;;;;;;4845898;29;20461;-78
2023/01/28 19:19:50;;;;;;;6.65;1.67;;;14.10;65.20;;;;;;4828408;29;20074;-78
2023/01/28 19:22:16;;;;;;;7.15;1.40;;;14.00;65.10;;;;;;4851975;29;20044;-78
2023/01/28 19:24:42;;;;;;;7.30;1.83;;;14.00;65.40;;;;;;4867080;29;20038;-79
2023/01/28 19:27:07;;;;;;;13.38;1.45;;;14.00;64.70;;;;;;4868471;29;20483;-78
2023/01/28 19:29:33;;;;;;;17.73;2.17;;;14.00;64.50;;;;;;4856636;29;20124;-78
2023/01/28 19:31:59;;;;;;;9.27;1.63;;;14.00;64.40;;;;;;4882350;29;20128;-80
2023/01/28 19:34:25;;;;;;;9.88;2.03;;;14.00;64.30;;;;;;4854265;29;20145;-80
2023/01/28 19:36:50;;;;;;;5.97;1.40;;;13.90;64.20;;;;;;4863781;29;20406;-80
2023/01/28 19:39:16;;;;;;;8.73;1.85;;;13.90;64.20;;;;;;4861572;29;20411;-80
2023/01/28 19:41:43;;;;;;;5.05;1.15;;;13.90;64.20;;;;;;4863128;29;20132;-80
2023/01/28 19:44:09;;;;;;;5.63;1.33;;;13.90;64.20;;;;;;4863700;29;20402;-79
2023/01/28 19:46:35;;;;;;;6.78;1.38;;;13.90;64.20;;;;;;4873857;29;20115;-79
2023/01/28 19:49:02;;;;;;;3.20;0.93;;;13.90;64.20;;;;;;4865112;29;20053;-79
2023/01/28 19:51:28;;;;;;;6.38;1.20;;;13.90;64.20;;;;;;4880255;29;20052;-79
2023/01/28 19:53:54;;;;;;;5.45;1.15;;;13.90;64.30;;;;;;4880853;29;20049;-78
2023/01/28 19:56:22;;;;;;;4.75;1.20;;;13.90;64.40;;;;;;4875536;29;20037;-79
2023/01/28 19:58:48;;;;;;;13.60;1.05;;;13.80;64.40;;;;;;4877441;29;20129;-80
2023/01/28 20:01:17;;;;;;;3.70;1.10;;;13.80;64.50;;;;;;4875486;29;20055;-79
2023/01/28 20:03:44;;;;;;;3.72;1.27;;;13.80;64.60;;;;;;4877591;29;20073;-79
2023/01/28 20:06:13;;;;;;;3.38;1.05;;;13.80;64.70;;;;;;4858920;29;20049;-79
2023/01/28 20:08:39;;;;;;;3.67;1.15;;;13.80;64.60;;;;;;4869166;29;20049;-79
2023/01/28 20:11:11;;;;;;;5.38;1.13;;;13.80;64.70;;;;;;4861883;29;20075;-81
2023/01/28 20:13:38;;;;;;;9.25;2.17;;;13.80;64.70;;;;;;4864205;29;20120;-79
2023/01/28 20:16:06;;;;;;;8.38;1.42;;;13.80;64.70;;;;;;4880841;29;20129;-77
